Flight Track Log - Related Links

Times and Time Zones

All times are in EDT time to prevent confusion due to time zone crossing. See the SWA652 flight status page for this flight to view local times or setup timezone preferences in your user account.

Time Position Orientation Groundspeed Altitude Reporting Facility
EDT Latitude Longitude Course Direction KTS MPH feet Rate Location/Type
Tue 02:16:54 PM 33.4333 -111.9833 90° East 202 232 1,800  Level Phoenix TRACON
Tue 02:17:55 PM 33.4333 -111.9167 90° East 188 216 3,800 2,281 Climbing Phoenix TRACON
Tue 02:18:55 PM 33.4500 -111.8500 73° East 233 268 6,400 2,400 Climbing Phoenix TRACON
Tue 02:19:55 PM 33.5000 -111.7833 48° Northeast 283 326 8,600 2,014 Climbing Phoenix TRACON
Tue 02:21:15 PM 33.5444 -111.6717 64° Northeast 325 374 11,100 2,596 Climbing Albuquerque Center
Tue 02:22:16 PM 33.5908 -111.5397 67° East 358 412 14,700 2,878 Climbing Albuquerque Center
Tue 02:23:18 PM 33.6322 -111.4247 67° East 376 433 17,000 2,371 Climbing Albuquerque Center
Tue 02:24:20 PM 33.6767 -111.3025 66° East 401 461 19,600 2,390 Climbing Albuquerque Center
Tue 02:25:21 PM 33.7206 -111.1753 67° East 414 476 21,900 2,146 Climbing Albuquerque Center
Tue 02:26:23 PM 33.7686 -111.0428 66° East 433 498 24,000 1,887 Climbing Albuquerque Center
Tue 02:27:25 PM 33.8178 -110.9042 67° East 446 513 25,800 1,902 Climbing Albuquerque Center
Tue 02:28:26 PM 33.8786 -110.7300 67° East 466 536 27,900 1,805 Climbing Albuquerque Center
Tue 02:29:28 PM 33.9322 -110.5808 67° East 480 552 29,500 1,548 Climbing Albuquerque Center
Tue 02:30:30 PM 33.9847 -110.4269 68° East 493 567 31,100 1,854 Climbing Albuquerque Center
Tue 02:31:31 PM 34.0408 -110.2683 67° East 498 573 33,300 1,902 Climbing Albuquerque Center
Tue 02:32:33 PM 34.0933 -110.1181 67° East 493 567 35,000 1,548 Climbing Albuquerque Center
Tue 02:33:35 PM 34.1503 -109.9547 67° East 484 557 36,500 976 Climbing Albuquerque Center
Tue 02:34:36 PM 34.1994 -109.8092 68° East 487 560 37,000 244 Climbing Albuquerque Center
Tue 02:35:38 PM 34.2561 -109.6403 68° East 487 560 37,000  Level Albuquerque Center
Tue 02:36:40 PM 34.3072 -109.4939 67° East 491 565 37,000  Level Albuquerque Center
Tue 02:37:41 PM 34.3642 -109.3239 68° East 490 564 37,000  Level Albuquerque Center
Tue 02:38:43 PM 34.4131 -109.1772 68° East 491 565 37,000  Level Albuquerque Center
Tue 02:39:45 PM 34.4644 -109.0047 70° East 489 563 37,000  Level Albuquerque Center
Tue 02:40:46 PM 34.5056 -108.8547 72° East 490 564 37,000  Level Albuquerque Center
Tue 02:41:48 PM 34.5689 -108.7189 60° Northeast 485 558 37,000  Level Albuquerque Center
Tue 02:42:49 PM 34.6419 -108.5614 61° Northeast 482 555 37,000  Level Albuquerque Center
Tue 02:43:51 PM 34.7097 -108.4119 61° Northeast 486 559 37,000  Level Albuquerque Center
Tue 02:44:53 PM 34.7756 -108.2686 61° Northeast 486 559 37,000  Level Albuquerque Center
Tue 02:45:54 PM 34.8414 -108.1258 61° Northeast 485 558 37,000  Level Albuquerque Center
Tue 02:46:56 PM 34.9133 -107.9667 61° Northeast 486 559 37,000  Level Albuquerque Center
Tue 02:47:58 PM 34.9758 -107.8294 61° Northeast 485 558 37,000  Level Albuquerque Center
Tue 02:48:59 PM 35.0378 -107.6922 61° Northeast 487 560 37,000  Level Albuquerque Center
Tue 02:50:01 PM 35.1108 -107.5303 61° Northeast 486 559 37,000  Level Albuquerque Center
Tue 02:51:03 PM 35.1689 -107.4003 61° Northeast 489 563 37,000  Level Albuquerque Center
Tue 02:52:04 PM 35.2344 -107.2539 61° Northeast 488 562 37,000  Level Albuquerque Center
Tue 02:53:06 PM 35.3061 -107.0881 62° Northeast 488 562 37,000  Level Albuquerque Center
Tue 02:54:07 PM 35.3764 -106.9286 62° Northeast 479 551 37,000  Level Albuquerque Center
Tue 02:55:09 PM 35.4419 -106.7847 61° Northeast 485 558 37,000  Level Albuquerque Center
Tue 02:56:11 PM 35.5056 -106.6389 62° Northeast 482 555 37,000  Level Albuquerque Center
Tue 02:57:12 PM 35.5694 -106.4939 62° Northeast 482 555 37,000  Level Albuquerque Center
Tue 02:58:14 PM 35.6317 -106.3494 62° Northeast 479 551 37,000  Level Albuquerque Center
Tue 02:59:16 PM 35.7008 -106.1892 62° Northeast 483 556 37,000  Level Albuquerque Center
Tue 03:00:17 PM 35.7572 -106.0553 63° Northeast 483 556 37,000  Level Albuquerque Center
Tue 03:01:19 PM 35.8203 -105.9083 62° Northeast 485 558 37,000  Level Albuquerque Center
Tue 03:02:20 PM 35.8825 -105.7608 62° Northeast 486 559 37,000  Level Albuquerque Center
Tue 03:03:22 PM 35.9575 -105.5825 63° Northeast 487 560 37,000  Level Albuquerque Center
Tue 03:04:24 PM 36.0153 -105.4433 63° Northeast 486 559 37,000  Level Albuquerque Center
Tue 03:05:25 PM 36.0783 -105.2919 63° Northeast 487 560 37,000  Level Albuquerque Center
Tue 03:06:27 PM 36.1408 -105.1411 63° Northeast 487 560 37,000  Level Albuquerque Center
Tue 03:07:29 PM 36.2150 -104.9647 62° Northeast 487 560 37,000  Level Albuquerque Center
Tue 03:08:30 PM 36.2767 -104.8133 63° Northeast 486 559 37,000  Level Albuquerque Center
Tue 03:09:32 PM 36.3378 -104.6653 63° Northeast 480 552 37,000  Level Albuquerque Center
Tue 03:10:34 PM 36.3994 -104.5133 63° Northeast 484 557 37,000  Level Albuquerque Center
Tue 03:11:35 PM 36.4611 -104.3636 63° Northeast 483 556 37,000  Level Albuquerque Center
Tue 03:12:37 PM 36.5219 -104.2139 63° Northeast 481 554 37,000  Level Albuquerque Center
Tue 03:13:39 PM 36.5611 -104.0517 73° East 491 565 37,000  Level Albuquerque Center
Tue 03:14:40 PM 36.5942 -103.8875 76° East 485 558 37,000  Level Albuquerque Center
Tue 03:15:42 PM 36.6261 -103.7197 77° East 488 562 37,000  Level Albuquerque Center
Tue 03:16:43 PM 36.6600 -103.5439 76° East 487 560 37,000  Level Albuquerque Center
Tue 03:17:45 PM 36.6917 -103.3856 76° East 490 564 37,000  Level Albuquerque Center
Tue 03:18:47 PM 36.7264 -103.2022 77° East 489 563 37,000 439 Level Albuquerque Center
Tue 03:19:48 PM 36.7592 -103.0417 76° East 496 571 37,900 976 Climbing Albuquerque Center
Tue 03:20:50 PM 36.7967 -102.8550 76° East 498 573 39,000 532 Climbing Albuquerque Center
Tue 03:21:52 PM 36.8439 -102.7044 69° East 490 564 39,000  Level Albuquerque Center
Tue 03:22:54 PM 36.9183 -102.5389 61° Northeast 490 564 39,000  Level Albuquerque Center
Tue 03:23:55 PM 36.9839 -102.3903 61° Northeast 491 565 39,000  Level Albuquerque Center
Tue 03:24:57 PM 37.0453 -102.2481 62° Northeast 487 560 39,000  Level Albuquerque Center
Tue 03:25:59 PM 37.1178 -102.0817 61° Northeast 487 560 39,000  Level Albuquerque Center
Tue 03:27:01 PM 37.1975 -101.9597 51° Northeast 476 548 39,000  Level Albuquerque Center
Tue 03:28:13 PM 37.3189 -101.8183 43° Northeast 468 539 39,000  Level Kansas City Center
Tue 03:29:15 PM 37.4094 -101.7131 43° Northeast 465 535 39,000  Level Kansas City Center
Tue 03:30:17 PM 37.5169 -101.5903 42° Northeast 466 536 39,000  Level Kansas City Center
Tue 03:31:19 PM 37.6094 -101.4847 42° Northeast 466 536 39,000  Level Kansas City Center
Tue 03:32:21 PM 37.7022 -101.3811 41° Northeast 464 534 39,000  Level Kansas City Center
Tue 03:33:23 PM 37.8114 -101.2583 42° Northeast 465 535 39,000  Level Kansas City Center
Tue 03:34:25 PM 37.9056 -101.1525 42° Northeast 468 539 39,000  Level Kansas City Center
Tue 03:35:26 PM 38.0153 -101.0289 42° Northeast 469 540 39,000  Level Kansas City Center
Tue 03:36:28 PM 38.0986 -100.9064 49° Northeast 484 557 39,000  Level Kansas City Center
Tue 03:37:30 PM 38.1478 -100.7528 68° East 488 562 39,000  Level Kansas City Center
Tue 03:38:32 PM 38.2011 -100.5692 70° East 492 566 39,000  Level Kansas City Center
Tue 03:39:34 PM 38.2439 -100.4131 71° East 489 563 39,000  Level Kansas City Center
Tue 03:40:36 PM 38.2942 -100.2317 70° East 486 559 39,000  Level Kansas City Center
Tue 03:41:38 PM 38.3378 -100.0756 70° East 488 562 39,000  Level Kansas City Center
Tue 03:42:40 PM 38.3889 -99.8942 70° East 487 560 39,000  Level Kansas City Center
Tue 03:43:42 PM 38.4317 -99.7383 71° East 487 560 39,000  Level Kansas City Center
Tue 03:44:44 PM 38.4808 -99.5572 71° East 485 558 39,000  Level Kansas City Center
Tue 03:45:46 PM 38.5256 -99.3981 70° East 484 557 39,000  Level Kansas City Center
Tue 03:46:47 PM 38.5686 -99.2378 71° East 479 551 39,000  Level Kansas City Center
Tue 03:47:49 PM 38.6128 -99.0792 70° East 474 545 39,000  Level Kansas City Center
Tue 03:48:51 PM 38.6550 -98.9200 71° East 472 543 39,000  Level Kansas City Center
Tue 03:49:53 PM 38.7172 -98.7733 61° Northeast 466 536 39,000  Level Kansas City Center
Tue 03:50:55 PM 38.7900 -98.6378 55° Northeast 461 531 39,000  Level Kansas City Center
Tue 03:51:57 PM 38.8619 -98.5028 56° Northeast 457 526 39,000  Level Kansas City Center
Tue 03:52:59 PM 38.9497 -98.3381 56° Northeast 464 534 39,000  Level Kansas City Center
Tue 03:54:01 PM 39.0219 -98.2006 56° Northeast 463 533 39,000  Level Kansas City Center
Tue 03:55:03 PM 39.0942 -98.0631 56° Northeast 462 532 39,000  Level Kansas City Center
Tue 03:56:04 PM 39.1675 -97.9275 55° Northeast 463 533 39,000  Level Kansas City Center
Tue 03:57:06 PM 39.2425 -97.7881 55° Northeast 461 531 39,000  Level Kansas City Center
Tue 03:58:08 PM 39.3164 -97.6528 55° Northeast 462 532 39,000  Level Kansas City Center
Tue 03:59:10 PM 39.3942 -97.5144 54° Northeast 461 531 39,000  Level Kansas City Center
Tue 04:00:12 PM 39.4786 -97.3656 54° Northeast 459 528 39,000  Level Kansas City Center
Tue 04:01:14 PM 39.5556 -97.2267 54° Northeast 457 526 39,000  Level Kansas City Center
Tue 04:02:16 PM 39.6331 -97.0978 52° Northeast 456 525 39,000  Level Kansas City Center
Tue 04:03:18 PM 39.7083 -96.9650 54° Northeast 457 526 39,000  Level Kansas City Center
Tue 04:04:19 PM 39.7864 -96.8358 52° Northeast 455 524 39,000  Level Kansas City Center
Tue 04:05:21 PM 39.8633 -96.7067 52° Northeast 453 521 39,000  Level Kansas City Center
Tue 04:06:23 PM 39.9408 -96.5769 52° Northeast 454 522 39,000  Level Kansas City Center
Tue 04:07:25 PM 39.9967 -96.3897 69° East 462 532 39,000  Level Kansas City Center
Tue 04:08:27 PM 40.0403 -96.2331 70° East 463 533 39,000  Level Kansas City Center
Tue 04:09:29 PM 40.0753 -96.0628 75° East 464 534 39,000  Level Kansas City Center
Tue 04:10:31 PM 40.0958 -95.9031 80° East 466 536 39,000  Level Kansas City Center
Tue 04:11:33 PM 40.1183 -95.7142 81° East 469 540 39,000  Level Kansas City Center
Tue 04:12:35 PM 40.1372 -95.5525 81° East 469 540 39,000  Level Kansas City Center
Tue 04:13:37 PM 40.1567 -95.3897 81° East 470 541 39,000  Level Kansas City Center
Tue 04:14:39 PM 40.1792 -95.1961 81° East 477 549 39,000  Level Kansas City Center
Tue 04:15:41 PM 40.1981 -95.0328 81° East 475 547 39,000  Level Kansas City Center
Tue 04:16:43 PM 40.2200 -94.8411 81° East 474 545 39,000  Level Kansas City Center
Tue 04:17:45 PM 40.2381 -94.6739 82° East 481 554 39,000  Level Kansas City Center
Tue 04:18:47 PM 40.2606 -94.4789 81° East 484 557 39,000  Level Kansas City Center
Tue 04:20:40 PM 40.2967 -94.1525 82° East 485 558 39,000  Level Chicago Center
Tue 04:21:42 PM 40.3139 -93.9811 82° East 481 554 39,000  Level Chicago Center
Tue 04:22:44 PM 40.3317 -93.8081 82° East 482 555 39,000  Level Chicago Center
Tue 04:23:46 PM 40.3500 -93.6378 82° East 478 550 39,000  Level Chicago Center
Tue 04:24:48 PM 40.3667 -93.4653 83° East 479 551 39,000  Level Chicago Center
Tue 04:25:50 PM 40.3886 -93.2603 82° East 476 548 39,000  Level Chicago Center
Tue 04:26:52 PM 40.4047 -93.0878 83° East 480 552 39,000  Level Chicago Center
Tue 04:27:55 PM 40.4217 -92.9150 83° East 479 551 39,000  Level Chicago Center
Tue 04:28:57 PM 40.4392 -92.7414 82° East 479 551 39,000  Level Chicago Center
Tue 04:29:59 PM 40.4558 -92.5639 83° East 483 556 39,000  Level Chicago Center
Tue 04:31:01 PM 40.4722 -92.3872 83° East 483 556 39,000  Level Chicago Center
Tue 04:32:04 PM 40.4908 -92.1775 83° East 483 556 39,000 -97 Level Chicago Center
Tue 04:33:05 PM 40.5064 -92.0017 83° East 487 560 38,800 -585 Descending Chicago Center
Tue 04:34:07 PM 40.5219 -91.8272 83° East 486 559 37,800 -968 Descending Chicago Center
Tue 04:35:09 PM 40.5369 -91.6528 83° East 485 558 36,800 -1,694 Descending Chicago Center
Tue 04:36:11 PM 40.5508 -91.4786 84° East 484 557 34,300 -2,516 Descending Chicago Center
Tue 04:37:13 PM 40.5683 -91.2708 84° East 480 552 31,600 -1,597 Descending Chicago Center
Tue 04:38:15 PM 40.5800 -91.1272 84° East 468 539 31,000 -528 Descending Chicago Center
Tue 04:39:18 PM 40.5975 -90.9206 84° East 473 544 30,500 -672 Descending Chicago Center
Tue 04:40:20 PM 40.6106 -90.7444 84° East 483 556 29,600 -919 Descending Chicago Center
Tue 04:41:22 PM 40.6242 -90.5636 84° East 494 568 28,600 -968 Descending Chicago Center
Tue 04:42:24 PM 40.6375 -90.3839 84° East 495 570 27,600 -968 Descending Chicago Center
Tue 04:43:26 PM 40.6500 -90.2075 85° East 497 572 26,600 -1,065 Descending Chicago Center
Tue 04:44:28 PM 40.6647 -89.9997 85° East 480 552 25,400 -1,065 Descending Chicago Center
Tue 04:45:30 PM 40.6753 -89.8317 85° East 469 540 24,400 -1,210 Descending Chicago Center
Tue 04:46:32 PM 40.7269 -89.6844 65° Northeast 444 511 22,900 -1,790 Descending Chicago Center
Tue 04:47:34 PM 40.7850 -89.5486 61° Northeast 426 490 20,700 -2,177 Descending Chicago Center
Tue 04:48:36 PM 40.8486 -89.4031 60° Northeast 402 463 18,400 -1,839 Descending Chicago Center
Tue 04:49:38 PM 40.9011 -89.2794 61° Northeast 388 447 16,900 -720 Descending Chicago Center
Tue 04:50:41 PM 40.9528 -89.1592 60° Northeast 379 436 16,900 -336 Level Chicago Center
Tue 04:51:43 PM 41.0056 -89.0336 61° Northeast 381 438 16,200 -871 Descending Chicago Center
Tue 04:52:45 PM 41.0569 -88.9133 60° Northeast 380 437 15,100 -1,452 Descending Chicago Center
Tue 04:53:47 PM 41.1233 -88.8117 49° Northeast 370 426 13,200 -2,323 Descending Chicago Center
Tue 04:54:49 PM 41.2167 -88.7056 41° Northeast 370 426 10,300 -1,597 Descending Chicago Center
Tue 04:55:51 PM 41.2856 -88.6247 41° Northeast 343 395 9,900 -1,065 Descending Chicago Center
Tue 04:56:53 PM 41.3467 -88.5544 41° Northeast 308 354 8,100 -1,645 Descending Chicago Center
Tue 04:57:55 PM 41.3997 -88.4778 47° Northeast 298 343 6,500 -1,016 Descending Chicago Center
Tue 04:58:57 PM 41.4383 -88.3919 59° Northeast 280 322 6,000 -242 Descending Chicago Center
Tue 04:59:59 PM 41.4769 -88.3078 59° Northeast 272 313 6,000 -48 Level Chicago Center
Tue 05:01:02 PM 41.5233 -88.2044 59° Northeast 270 311 5,900 -528 Descending Chicago Center
Tue 05:02:04 PM 41.5631 -88.1197 58° Northeast 268 308 4,900 -919 Descending Chicago Center
Tue 05:03:06 PM 41.6000 -88.0358 59° Northeast 265 305 4,000 -435 Descending Chicago Center
Tue 05:04:08 PM 41.6325 -87.9642 59° Northeast 242 278 4,000 -145 Level Chicago Center
Tue 05:05:10 PM 41.6656 -87.8997 56° Northeast 223 257 3,700 -629 Descending Chicago Center
Tue 05:06:12 PM 41.7064 -87.8511 42° Northeast 206 237 2,700 -968 Descending Chicago Center
Tue 05:07:14 PM 41.7431 -87.8047 43° Northeast 173 199 1,700 -823 Descending Chicago Center
Tue 05:08:16 PM 41.7683 -87.7744 42° Northeast 144 166 1,000 -677 Descending Chicago Center
Tue 05:10:00 PM 41.7833 -87.7500 North  Level FlightAware Approximate

Login

Don't have an account? Register now (free) for customized features, flight alerts, and more!